This is the latest recevied weather packets stored in our database for station/object AE5HO. If no packets are shown the sender has not sent any weather packets the latest 10 day(s).
| Time | Temp. | Humidity | Pressure | Rain* | Wind** | Luminosity | Snow |
|---|---|---|---|---|---|---|---|
| 1777487433 | 17.78° C | 79% | 1015.1 hPa | 0 mm | - | 105 W/m² | - |
| 1777487131 | 17.22° C | 80% | 1015 hPa | 0 mm | - | 94 W/m² | - |
| 1777486826 | 17.22° C | 81% | 1015.6 hPa | 0 mm | - | 56 W/m² | - |
| 1777486524 | 16.67° C | 81% | 1015.6 hPa | 0 mm | - | 56 W/m² | - |
| 1777486221 | 16.67° C | 81% | 1016 hPa | 0 mm | - | 32 W/m² | - |
| 1777485919 | 16.67° C | 81% | 1016 hPa | 0 mm | - | 31 W/m² | - |
| 1777485615 | 16.67° C | 82% | 1016 hPa | 0 mm | - | 39 W/m² | - |
| 1777485310 | 16.67° C | 81% | 1016.1 hPa | 0 mm | - | 33 W/m² | - |
| 1777485006 | 16.67° C | 81% | 1016.4 hPa | 0 mm | - | 28 W/m² | - |
| 1777484704 | 16.67° C | 81% | 1016.7 hPa | 0 mm | - | 24 W/m² | - |
| 1777484400 | 16.67° C | 81% | 1016.4 hPa | 0 mm | - | 29 W/m² | - |
| 1777484096 | 16.67° C | 81% | 1016.4 hPa | 0 mm | - | 32 W/m² | - |
| 1777483793 | 16.67° C | 81% | 1016.1 hPa | 0 mm | - | 31 W/m² | - |
| 1777483490 | 16.67° C | 81% | 1016.2 hPa | 0 mm | - | 29 W/m² | - |
| 1777483184 | 16.67° C | 81% | 1016.2 hPa | 0 mm | - | 28 W/m² | - |
| 1777482881 | 16.67° C | 81% | 1016.4 hPa | 0 mm | - | 23 W/m² | - |
| 1777482577 | 16.11° C | 81% | 1016.3 hPa | 0 mm | - | 22 W/m² | - |
| 1777482274 | 16.67° C | 81% | 1016.3 hPa | 0 mm | - | 24 W/m² | - |
| 1777481972 | 16.67° C | 81% | 1016.8 hPa | 0 mm | - | 31 W/m² | - |
| 1777481669 | 16.67° C | 81% | 1016.1 hPa | 0 mm | - | 56 W/m² | - |
| 1777481366 | 16.67° C | 81% | 1016 hPa | 0 mm | - | 50 W/m² | - |
| 1777481062 | 16.67° C | 81% | 1016 hPa | 0 mm | - | 49 W/m² | - |
| 1777480759 | 16.11° C | 82% | 1016.3 hPa | 0 mm | - | 56 W/m² | - |
| 1777480456 | 16.11° C | 82% | 1017.2 hPa | 0 mm | - | 17 W/m² | - |
| 1777480152 | 16.11° C | 82% | 1016.6 hPa | 0 mm | - | 32 W/m² | - |
* Rain latest hour (hover to see other rain measurements)
** Current wind speed in m/s (hover to see current wind gust speed)